Time;durP1;ratioP1;P1;durP2;ratioP2;P2;SDS_P1;SDS_P2;PMS_P1;PMS_P2;Temp;Humidity;BMP_temperature;BMP_pressure;BME280_temperature;BME280_humidity;BME280_pressure;Samples;Min_cycle;Max_cycle;Signal;HPM_P1;HPM_P2
2021/04/26 00:01:37;;;;;;;17.17;13.32;;;6.20;92.60;;;;;;5053650;28;20032;-75
2021/04/26 00:04:03;;;;;;;19.73;13.98;;;6.20;92.60;;;;;;5053579;28;20029;-75
2021/04/26 00:06:29;;;;;;;17.58;13.35;;;6.20;92.60;;;;;;5053202;28;20021;-75
2021/04/26 00:08:55;;;;;;;16.70;12.80;;;6.20;92.70;;;;;;5052635;28;20087;-75
2021/04/26 00:11:21;;;;;;;15.95;13.73;;;6.20;92.60;;;;;;5051837;28;20036;-76
2021/04/26 00:13:46;;;;;;;16.45;12.57;;;6.20;92.60;;;;;;5053176;28;20053;-75
2021/04/26 00:16:12;;;;;;;16.65;12.63;;;6.20;92.60;;;;;;5053106;28;20060;-76
2021/04/26 00:18:38;;;;;;;16.10;12.02;;;6.20;92.60;;;;;;5051685;28;20025;-75
2021/04/26 00:21:04;;;;;;;16.15;13.05;;;6.20;92.60;;;;;;5053555;28;20021;-75
2021/04/26 00:23:29;;;;;;;16.48;13.98;;;6.20;92.60;;;;;;5053350;28;20049;-76
2021/04/26 00:25:55;;;;;;;21.40;15.23;;;6.10;92.90;;;;;;5054083;28;20029;-76
2021/04/26 00:28:21;;;;;;;19.13;14.15;;;6.10;93.00;;;;;;5056672;28;20028;-75
2021/04/26 00:30:46;;;;;;;17.30;13.35;;;6.10;92.90;;;;;;5056667;28;20025;-76
2021/04/26 00:33:12;;;;;;;18.63;15.15;;;6.10;92.90;;;;;;5057194;28;20025;-76
2021/04/26 00:35:38;;;;;;;17.27;13.50;;;6.00;93.10;;;;;;5056676;28;20029;-76
2021/04/26 00:38:03;;;;;;;18.83;14.50;;;6.00;93.10;;;;;;5055339;28;20126;-76
2021/04/26 00:40:29;;;;;;;19.13;15.23;;;5.90;93.10;;;;;;5055337;28;20166;-75
2021/04/26 00:42:55;;;;;;;18.92;15.25;;;5.80;93.40;;;;;;5056486;28;20517;-75
2021/04/26 00:45:22;;;;;;;19.30;14.85;;;5.80;93.50;;;;;;5056485;28;20021;-75
2021/04/26 00:47:49;;;;;;;16.92;13.73;;;5.70;93.40;;;;;;5056394;28;20044;-75
2021/04/26 00:50:18;;;;;;;19.50;16.33;;;5.70;93.40;;;;;;5056268;28;20053;-75
2021/04/26 00:52:45;;;;;;;21.60;16.17;;;5.60;93.70;;;;;;5056785;28;20192;-75
2021/04/26 00:55:12;;;;;;;23.63;17.65;;;5.50;93.90;;;;;;5055438;28;20401;-75
2021/04/26 00:57:38;;;;;;;18.70;14.65;;;5.50;93.90;;;;;;5054995;28;20025;-75
2021/04/26 01:00:06;;;;;;;18.08;13.65;;;5.40;93.70;;;;;;5056303;28;20079;-75
2021/04/26 01:02:32;;;;;;;19.90;12.93;;;5.40;93.50;;;;;;5054808;28;20115;-75
2021/04/26 01:04:57;;;;;;;16.83;13.30;;;5.40;93.50;;;;;;5054863;28;20136;-75
2021/04/26 01:07:23;;;;;;;17.23;13.50;;;5.40;93.40;;;;;;5055855;28;20029;-75
2021/04/26 01:09:49;;;;;;;16.25;13.55;;;5.40;93.30;;;;;;5056113;28;20474;-75
2021/04/26 01:12:41;;;;;;;15.40;13.00;;;5.40;93.20;;;;;;5054786;28;20033;-75
2021/04/26 01:15:15;;;;;;;15.73;13.15;;;5.40;93.20;;;;;;5056314;28;20029;-75
2021/04/26 01:17:52;;;;;;;18.90;15.32;;;5.40;93.10;;;;;;5056247;28;20458;-75
2021/04/26 01:20:50;;;;;;;18.10;14.10;;;5.30;93.30;;;;;;5055797;28;20021;-75
2021/04/26 01:23:34;;;;;;;17.23;13.95;;;5.20;93.20;;;;;;5056314;28;20017;-75
2021/04/26 01:26:02;;;;;;;26.23;18.40;;;5.20;93.20;;;;;;5055763;28;20024;-75
2021/04/26 01:29:13;;;;;;;27.33;18.58;;;5.10;93.30;;;;;;5054482;28;20086;-75
2021/04/26 01:31:44;;;;;;;34.13;21.90;;;5.00;93.20;;;;;;4997555;28;20031;-75
2021/04/26 01:34:11;;;;;;;36.90;23.70;;;4.90;93.30;;;;;;5051782;28;20036;-75
2021/04/26 01:36:37;;;;;;;35.90;24.42;;;4.90;93.40;;;;;;5055686;28;20029;-75
2021/04/26 01:39:04;;;;;;;48.92;30.02;;;4.80;93.30;;;;;;5054238;28;20029;-75
2021/04/26 01:41:31;;;;;;;40.53;26.65;;;4.70;93.30;;;;;;5055346;28;20013;-75
2021/04/26 01:43:57;;;;;;;46.42;29.13;;;4.70;93.30;;;;;;5054166;28;20021;-75
2021/04/26 01:46:24;;;;;;;50.78;29.60;;;4.60;93.40;;;;;;5055652;28;20017;-75
2021/04/26 01:48:52;;;;;;;51.88;32.28;;;4.60;93.30;;;;;;5053828;28;20049;-76
2021/04/26 01:51:18;;;;;;;45.78;27.42;;;4.60;93.20;;;;;;5055221;28;20064;-75
2021/04/26 01:53:46;;;;;;;40.00;25.58;;;4.60;93.10;;;;;;5055386;28;20112;-76
2021/04/26 01:56:13;;;;;;;42.20;26.70;;;4.60;93.30;;;;;;5055100;28;20035;-75
2021/04/26 01:58:43;;;;;;;45.30;27.35;;;4.50;93.20;;;;;;5054966;28;20086;-76
2021/04/26 02:01:15;;;;;;;41.35;26.50;;;4.50;93.40;;;;;;5054960;28;20020;-76
2021/04/26 02:03:45;;;;;;;49.03;29.98;;;4.50;93.40;;;;;;5055361;28;20052;-76
2021/04/26 02:06:12;;;;;;;38.42;24.05;;;4.40;93.70;;;;;;5055339;28;20087;-75
2021/04/26 02:08:39;;;;;;;32.80;22.27;;;4.40;93.40;;;;;;5053965;28;20029;-75
2021/04/26 02:11:08;;;;;;;42.17;26.95;;;4.40;93.40;;;;;;5054108;28;20356;-76
2021/04/26 02:13:34;;;;;;;42.55;27.60;;;4.40;93.70;;;;;;5053406;28;20098;-76
2021/04/26 02:16:01;;;;;;;48.03;29.20;;;4.40;93.90;;;;;;5053469;28;20029;-76
2021/04/26 02:18:26;;;;;;;43.42;28.33;;;4.40;93.60;;;;;;5054619;28;20377;-75
2021/04/26 02:20:52;;;;;;;44.67;28.10;;;4.40;93.50;;;;;;5055268;28;20029;-76
2021/04/26 02:23:18;;;;;;;48.30;29.67;;;4.40;93.40;;;;;;5054006;28;20028;-76
2021/04/26 02:25:44;;;;;;;64.15;36.28;;;4.40;93.30;;;;;;5053245;28;20052;-76
2021/04/26 02:28:10;;;;;;;59.92;35.42;;;4.40;93.40;;;;;;5054567;28;20060;-76
2021/04/26 02:30:35;;;;;;;53.55;34.17;;;4.40;93.60;;;;;;5054462;28;20053;-76
2021/04/26 02:33:08;;;;;;;53.72;33.30;;;4.30;93.40;;;;;;5053223;28;20029;-75
2021/04/26 02:35:42;;;;;;;59.25;37.92;;;4.40;93.40;;;;;;5053173;28;20329;-76
2021/04/26 02:38:12;;;;;;;45.47;30.65;;;4.30;93.70;;;;;;5054196;28;20032;-76
2021/04/26 02:40:47;;;;;;;47.42;33.00;;;4.30;93.40;;;;;;5054684;28;20076;-76
2021/04/26 02:43:13;;;;;;;56.00;37.25;;;4.30;93.60;;;;;;5053584;28;20025;-75
2021/04/26 02:45:47;;;;;;;49.70;34.50;;;4.30;94.10;;;;;;5054267;28;20339;-76
2021/04/26 02:48:13;;;;;;;40.40;29.05;;;4.30;94.20;;;;;;5052290;28;20037;-76
2021/04/26 02:50:39;;;;;;;44.35;29.92;;;4.20;93.90;;;;;;5052585;28;20048;-75
2021/04/26 02:53:06;;;;;;;41.88;29.80;;;4.20;93.90;;;;;;5053983;28;20079;-75
2021/04/26 02:55:33;;;;;;;52.78;35.58;;;4.20;94.00;;;;;;5052717;28;20028;-76
2021/04/26 02:57:59;;;;;;;45.95;31.25;;;4.20;94.30;;;;;;5052549;28;20133;-76
2021/04/26 03:00:26;;;;;;;40.38;28.10;;;4.20;94.10;;;;;;5053683;28;20463;-75
2021/04/26 03:02:52;;;;;;;62.40;40.42;;;4.30;93.90;;;;;;5053823;28;20032;-76
2021/04/26 03:05:19;;;;;;;64.10;42.53;;;4.20;94.70;;;;;;5053797;28;20060;-75
2021/04/26 03:07:46;;;;;;;76.65;46.63;;;4.20;95.10;;;;;;5053912;28;20086;-76
2021/04/26 03:10:14;;;;;;;75.53;45.08;;;4.20;95.20;;;;;;5053746;28;20032;-75
2021/04/26 03:12:42;;;;;;;58.25;37.60;;;4.20;95.60;;;;;;5053789;28;20540;-75
2021/04/26 03:15:11;;;;;;;51.78;33.95;;;4.30;95.30;;;;;;5051639;28;20032;-75
2021/04/26 03:17:38;;;;;;;47.65;32.25;;;4.40;95.10;;;;;;5053451;28;20033;-75
2021/04/26 03:20:06;;;;;;;47.33;31.55;;;4.40;95.00;;;;;;5051436;28;20142;-76
2021/04/26 03:22:32;;;;;;;43.22;31.38;;;4.50;94.70;;;;;;5052772;28;20467;-75
2021/04/26 03:24:58;;;;;;;46.13;32.85;;;4.60;94.80;;;;;;5053022;28;20029;-75
2021/04/26 03:27:25;;;;;;;50.63;34.92;;;4.70;94.70;;;;;;5052099;28;20027;-75
2021/04/26 03:29:52;;;;;;;48.92;32.13;;;4.80;94.70;;;;;;5052964;28;20031;-76
2021/04/26 03:32:18;;;;;;;46.38;31.73;;;4.80;94.50;;;;;;5052179;28;20039;-76
2021/04/26 03:34:46;;;;;;;42.78;27.67;;;4.90;94.20;;;;;;5052147;28;20076;-76
2021/04/26 03:37:16;;;;;;;40.10;27.88;;;5.10;94.10;;;;;;5051803;28;20427;-76
2021/04/26 03:39:47;;;;;;;37.92;27.17;;;5.10;93.90;;;;;;5052783;28;20025;-76
2021/04/26 03:42:19;;;;;;;31.10;22.63;;;5.20;93.80;;;;;;5052222;28;20150;-77
2021/04/26 03:44:47;;;;;;;37.15;22.95;;;5.30;93.70;;;;;;5053237;28;20021;-77
2021/04/26 03:47:13;;;;;;;32.90;24.27;;;5.40;93.70;;;;;;5052051;28;20500;-77
2021/04/26 03:49:39;;;;;;;37.55;26.08;;;5.40;93.90;;;;;;5053532;28;20490;-77
2021/04/26 03:52:06;;;;;;;41.22;29.63;;;5.40;94.10;;;;;;5052443;28;20032;-77
2021/04/26 03:54:32;;;;;;;38.03;28.08;;;5.40;94.20;;;;;;5053242;28;20032;-77
2021/04/26 03:56:58;;;;;;;45.53;30.52;;;5.50;94.00;;;;;;5052078;28;20029;-77
2021/04/26 03:59:23;;;;;;;38.97;28.40;;;5.50;94.20;;;;;;5052983;28;20470;-77
2021/04/26 04:01:49;;;;;;;33.60;24.65;;;5.50;94.30;;;;;;5057188;28;20437;-77
2021/04/26 04:04:15;;;;;;;39.13;28.13;;;5.60;94.00;;;;;;5055931;28;20493;-77
2021/04/26 04:06:41;;;;;;;32.88;24.50;;;5.60;94.20;;;;;;5057182;28;20418;-77
2021/04/26 04:09:08;;;;;;;56.53;37.95;;;5.70;93.90;;;;;;5057072;28;20202;-77
2021/04/26 04:11:34;;;;;;;38.58;26.80;;;5.70;94.60;;;;;;5055832;28;20037;-76
2021/04/26 04:14:01;;;;;;;33.25;24.48;;;5.70;94.00;;;;;;5055760;28;20025;-77
2021/04/26 04:16:28;;;;;;;32.17;22.48;;;5.70;93.90;;;;;;5055504;28;20017;-77
2021/04/26 04:18:54;;;;;;;32.88;22.17;;;5.70;93.90;;;;;;5055564;28;20517;-77
2021/04/26 04:21:20;;;;;;;31.58;22.15;;;5.70;93.80;;;;;;5056608;28;20021;-78
2021/04/26 04:23:46;;;;;;;40.58;24.92;;;5.70;94.00;;;;;;5056742;28;20070;-80
2021/04/26 04:26:11;;;;;;;38.80;24.67;;;5.70;94.10;;;;;;5056496;28;20025;-79
2021/04/26 04:28:37;;;;;;;38.78;23.83;;;5.60;94.10;;;;;;5055450;28;20077;-78
2021/04/26 04:31:04;;;;;;;41.55;28.13;;;5.60;94.20;;;;;;5056757;28;20021;-79
2021/04/26 04:33:30;;;;;;;36.40;24.83;;;5.50;94.40;;;;;;5055419;28;20021;-78
2021/04/26 04:35:59;;;;;;;35.67;24.00;;;5.50;94.50;;;;;;5057042;28;20036;-77
2021/04/26 04:38:27;;;;;;;42.03;28.67;;;5.30;94.80;;;;;;5056441;28;20056;-77
2021/04/26 04:40:54;;;;;;;39.60;27.90;;;5.30;94.90;;;;;;5055187;28;20024;-76
2021/04/26 04:43:21;;;;;;;38.45;25.27;;;5.30;95.30;;;;;;5056362;28;20028;-76
2021/04/26 04:45:47;;;;;;;33.65;22.52;;;5.30;94.80;;;;;;5055109;28;20025;-83
2021/04/26 04:48:13;;;;;;;25.17;17.40;;;5.30;95.10;;;;;;5055147;28;20033;-83
2021/04/26 04:50:39;;;;;;;21.73;15.63;;;5.30;94.70;;;;;;5055338;28;20091;-82
2021/04/26 04:53:05;;;;;;;19.27;14.60;;;5.20;94.90;;;;;;5055035;28;20116;-82
2021/04/26 04:55:30;;;;;;;20.42;14.07;;;5.30;95.00;;;;;;5056340;28;20064;-82
2021/04/26 04:57:56;;;;;;;28.17;17.70;;;5.30;94.80;;;;;;5056251;28;20067;-84
2021/04/26 05:00:22;;;;;;;23.17;15.18;;;5.30;94.60;;;;;;5043332;28;20060;-79
2021/04/26 05:02:47;;;;;;;34.63;20.75;;;5.30;94.70;;;;;;5034700;28;20033;-72
2021/04/26 05:05:13;;;;;;;30.45;19.48;;;5.30;94.10;;;;;;5049289;28;20100;-72
2021/04/26 05:07:39;;;;;;;37.25;22.33;;;5.20;94.10;;;;;;5053787;28;20029;-75
2021/04/26 05:10:06;;;;;;;22.92;14.75;;;5.00;94.20;;;;;;5069473;28;20056;-75
2021/04/26 05:12:32;;;;;;;20.30;13.75;;;4.80;94.10;;;;;;5073037;28;20035;-72
2021/04/26 05:14:58;;;;;;;23.35;14.85;;;4.70;94.40;;;;;;5067035;28;20387;-72
2021/04/26 05:17:25;;;;;;;15.63;8.93;;;4.60;94.60;;;;;;5052991;28;20029;-72
2021/04/26 05:19:51;;;;;;;14.70;10.95;;;4.60;94.40;;;;;;5052796;28;20033;-72
2021/04/26 05:22:16;;;;;;;16.25;12.27;;;4.40;94.20;;;;;;5053687;28;20029;-73
2021/04/26 05:24:42;;;;;;;13.13;9.75;;;4.20;94.60;;;;;;5053100;28;20482;-72
2021/04/26 05:27:08;;;;;;;20.98;15.90;;;4.30;94.30;;;;;;5052714;28;20032;-72
2021/04/26 05:29:34;;;;;;;15.00;10.70;;;4.30;94.20;;;;;;5054137;28;20476;-72
2021/04/26 05:32:00;;;;;;;21.08;14.50;;;4.30;94.50;;;;;;5053066;28;20081;-72
2021/04/26 05:34:26;;;;;;;18.98;13.68;;;4.30;94.50;;;;;;5054296;28;20021;-72
2021/04/26 05:36:52;;;;;;;30.35;18.42;;;4.40;94.40;;;;;;5052689;28;20028;-72
2021/04/26 05:39:18;;;;;;;26.60;18.33;;;4.40;94.30;;;;;;5054043;28;20036;-72
2021/04/26 05:41:43;;;;;;;29.05;17.30;;;4.40;94.10;;;;;;5055191;28;20117;-73
2021/04/26 05:44:09;;;;;;;23.45;16.40;;;4.50;94.10;;;;;;5055350;28;20037;-73
2021/04/26 05:46:35;;;;;;;29.88;20.25;;;4.40;94.10;;;;;;5054464;28;20017;-73
2021/04/26 05:49:01;;;;;;;27.00;17.40;;;4.40;94.40;;;;;;5054886;28;20503;-73
2021/04/26 05:51:27;;;;;;;37.00;21.42;;;4.40;94.40;;;;;;5055456;28;20055;-73
2021/04/26 05:53:53;;;;;;;37.90;24.08;;;4.30;95.20;;;;;;5055250;28;20025;-74
2021/04/26 05:56:18;;;;;;;36.65;23.27;;;4.40;94.60;;;;;;5053751;28;20025;-77
2021/04/26 05:58:44;;;;;;;27.52;17.77;;;4.40;94.70;;;;;;5055042;28;20079;-76
2021/04/26 06:01:10;;;;;;;12.60;9.63;;;4.30;95.50;;;;;;5054085;28;20055;-81
2021/04/26 06:03:35;;;;;;;10.50;7.78;;;4.20;94.80;;;;;;5055078;28;20458;-80
2021/04/26 06:06:01;;;;;;;14.65;11.20;;;4.10;94.60;;;;;;5053419;28;20115;-85
2021/04/26 06:08:27;;;;;;;12.65;10.40;;;3.80;94.70;;;;;;5054890;28;20040;-78
2021/04/26 06:10:53;;;;;;;12.30;9.98;;;3.50;94.90;;;;;;5054822;28;20498;-76
2021/04/26 06:13:18;;;;;;;22.58;13.88;;;3.20;95.40;;;;;;5054779;28;20032;-79
2021/04/26 06:15:44;;;;;;;11.55;9.00;;;3.00;95.80;;;;;;5053554;28;20097;-85
2021/04/26 06:18:12;;;;;;;6.07;5.00;;;2.90;96.00;;;;;;5053583;28;20021;-84
2021/04/26 06:20:39;;;;;;;6.93;6.22;;;2.80;96.10;;;;;;5053461;28;20077;-85
2021/04/26 06:23:05;;;;;;;21.52;13.32;;;2.60;96.70;;;;;;5054185;28;20017;-85
2021/04/26 06:25:32;;;;;;;159.25;43.40;;;2.60;97.10;;;;;;5053604;28;20498;-85
2021/04/26 06:27:58;;;;;;;30.75;12.25;;;2.50;97.30;;;;;;5053645;28;20036;-89
2021/04/26 06:30:24;;;;;;;119.75;38.78;;;2.40;97.70;;;;;;5053743;28;20025;-83
2021/04/26 06:32:49;;;;;;;30.05;14.20;;;2.40;97.50;;;;;;5053532;28;20017;-88
2021/04/26 06:35:15;;;;;;;28.30;17.80;;;2.30;97.80;;;;;;5053497;28;20108;-84
2021/04/26 06:37:41;;;;;;;11.55;7.93;;;2.20;98.40;;;;;;5053493;28;20045;-86
2021/04/26 06:40:07;;;;;;;24.88;14.18;;;2.20;98.20;;;;;;5053393;28;20423;-85
2021/04/26 06:42:33;;;;;;;13.75;9.13;;;2.30;98.10;;;;;;5053309;28;20021;-82
2021/04/26 06:44:58;;;;;;;13.75;8.02;;;2.30;98.20;;;;;;5053043;28;20035;-86
2021/04/26 06:47:24;;;;;;;53.38;16.73;;;2.10;98.40;;;;;;5052817;28;20435;-81
2021/04/26 06:49:50;;;;;;;36.10;17.65;;;2.00;98.50;;;;;;5052833;28;20061;-80
2021/04/26 06:52:15;;;;;;;9.35;7.70;;;2.00;98.20;;;;;;5054136;28;20024;-83
2021/04/26 06:54:41;;;;;;;9.45;8.23;;;1.70;98.40;;;;;;5052436;28;20028;-82
2021/04/26 06:57:07;;;;;;;6.20;5.00;;;1.70;98.50;;;;;;5051422;28;20040;-82
2021/04/26 06:59:32;;;;;;;9.35;7.50;;;1.70;98.40;;;;;;5049636;28;20025;-85
2021/04/26 07:01:58;;;;;;;7.72;5.63;;;1.70;98.80;;;;;;5051155;28;20029;-88
2021/04/26 07:04:24;;;;;;;7.85;6.90;;;1.70;98.90;;;;;;5050621;28;20017;-86
2021/04/26 07:06:49;;;;;;;35.58;28.23;;;1.70;99.20;;;;;;5052081;28;20017;-83
2021/04/26 07:09:15;;;;;;;9.35;8.05;;;1.60;99.20;;;;;;5050244;28;20037;-84
2021/04/26 07:11:41;;;;;;;9.60;7.55;;;1.70;99.30;;;;;;5049985;28;20036;-82
2021/04/26 07:14:07;;;;;;;12.23;9.45;;;1.80;99.40;;;;;;5051855;28;20032;-84
2021/04/26 07:16:33;;;;;;;21.90;12.10;;;1.80;99.10;;;;;;5052023;28;20029;-83
2021/04/26 07:18:59;;;;;;;28.38;18.60;;;1.90;99.60;;;;;;5051469;28;20103;-83
2021/04/26 07:21:24;;;;;;;9.68;6.85;;;1.90;99.80;;;;;;5050242;28;20027;-85
2021/04/26 07:23:50;;;;;;;12.23;7.93;;;2.00;99.50;;;;;;5051864;28;20025;-83
2021/04/26 07:26:16;;;;;;;16.50;10.82;;;2.10;99.40;;;;;;5049700;28;20593;-81
2021/04/26 07:28:42;;;;;;;7.22;5.50;;;2.10;99.70;;;;;;5050975;28;20052;-83
2021/04/26 07:31:07;;;;;;;33.30;22.42;;;2.20;99.30;;;;;;5051864;28;20033;-85
2021/04/26 07:33:33;;;;;;;29.17;20.58;;;2.20;99.30;;;;;;5050666;28;20025;-81
2021/04/26 07:35:59;;;;;;;14.73;12.65;;;2.30;99.10;;;;;;5049508;28;20033;-81
2021/04/26 07:38:25;;;;;;;20.80;15.50;;;2.40;99.00;;;;;;5048904;28;20115;-83
2021/04/26 07:40:51;;;;;;;19.77;15.18;;;2.40;98.90;;;;;;5052323;28;20382;-80
2021/04/26 07:43:16;;;;;;;12.25;9.88;;;2.50;99.10;;;;;;5051110;28;20021;-81
2021/04/26 07:45:42;;;;;;;9.65;8.10;;;2.50;99.10;;;;;;5050579;28;20040;-81
2021/04/26 07:48:08;;;;;;;4.97;4.45;;;2.60;98.90;;;;;;5050942;28;20402;-80
2021/04/26 07:50:34;;;;;;;4.55;3.75;;;2.60;98.60;;;;;;5052325;28;20064;-82
2021/04/26 07:52:59;;;;;;;7.88;5.30;;;2.50;98.40;;;;;;5052509;28;20029;-84
2021/04/26 07:55:25;;;;;;;5.55;4.05;;;2.60;98.80;;;;;;5051509;28;20021;-82
2021/04/26 07:57:51;;;;;;;5.43;4.35;;;2.50;98.80;;;;;;5052538;28;20774;-82
2021/04/26 08:00:17;;;;;;;4.65;4.03;;;2.60;98.90;;;;;;5052489;28;20426;-80
2021/04/26 08:02:44;;;;;;;7.40;4.82;;;2.50;98.90;;;;;;5050908;28;20513;-82
2021/04/26 08:05:11;;;;;;;16.58;10.35;;;2.60;98.60;;;;;;5050535;28;20082;-80
2021/04/26 08:07:36;;;;;;;6.43;4.82;;;2.60;98.70;;;;;;5051038;28;20497;-81
2021/04/26 08:10:03;;;;;;;5.53;4.10;;;2.60;98.70;;;;;;5051332;28;20029;-88
2021/04/26 08:12:29;;;;;;;4.55;4.10;;;2.60;98.60;;;;;;5051523;28;20368;-84
2021/04/26 08:14:55;;;;;;;6.75;4.70;;;2.60;98.60;;;;;;5050104;28;20036;-82
2021/04/26 08:17:20;;;;;;;17.27;9.70;;;2.60;98.50;;;;;;5051635;28;20029;-80
2021/04/26 08:19:46;;;;;;;6.00;5.30;;;2.70;98.50;;;;;;5051016;28;20036;-82
2021/04/26 08:22:12;;;;;;;9.98;8.00;;;2.70;98.50;;;;;;5051367;28;20074;-81
2021/04/26 08:24:38;;;;;;;7.95;6.63;;;2.70;98.80;;;;;;5049551;28;20029;-82
2021/04/26 08:27:04;;;;;;;35.67;22.17;;;2.70;98.40;;;;;;5049946;28;20110;-80
2021/04/26 08:29:30;;;;;;;13.98;8.40;;;2.70;98.60;;;;;;5051358;28;20083;-82
2021/04/26 08:31:56;;;;;;;15.60;9.63;;;2.70;98.60;;;;;;5050182;28;20025;-81
2021/04/26 08:34:22;;;;;;;15.35;6.45;;;2.70;98.40;;;;;;5050207;28;20394;-82
2021/04/26 08:36:47;;;;;;;9.02;5.50;;;2.80;98.10;;;;;;5050093;28;20118;-83
2021/04/26 08:39:15;;;;;;;13.85;6.95;;;2.80;97.90;;;;;;5050002;28;20036;-84
2021/04/26 08:41:41;;;;;;;10.15;6.10;;;2.70;98.10;;;;;;5048435;28;20386;-82
2021/04/26 08:44:06;;;;;;;21.55;9.93;;;2.60;98.30;;;;;;5049028;28;20021;-87
2021/04/26 08:46:32;;;;;;;12.27;7.38;;;2.70;98.10;;;;;;5050170;28;20082;-83
2021/04/26 08:48:58;;;;;;;19.08;8.98;;;2.70;98.10;;;;;;5053183;28;20044;-82
2021/04/26 08:51:24;;;;;;;33.53;13.93;;;2.70;98.50;;;;;;5053720;28;20431;-84
2021/04/26 08:53:50;;;;;;;19.30;10.70;;;2.70;98.10;;;;;;5053401;28;20028;-82
2021/04/26 08:56:16;;;;;;;18.20;10.10;;;2.70;98.20;;;;;;5052596;28;20033;-83
2021/04/26 08:58:42;;;;;;;16.67;9.68;;;2.70;98.20;;;;;;5053811;28;20029;-84
2021/04/26 09:01:07;;;;;;;10.88;8.02;;;2.70;98.30;;;;;;5053298;28;20108;-84
2021/04/26 09:03:36;;;;;;;18.35;10.48;;;2.70;98.00;;;;;;5053386;28;20055;-83
2021/04/26 09:06:02;;;;;;;18.00;11.93;;;2.80;98.00;;;;;;5052689;28;20356;-85
2021/04/26 09:08:29;;;;;;;10.15;7.15;;;2.80;98.10;;;;;;5051262;28;20433;-84
2021/04/26 09:11:08;;;;;;;5.63;5.07;;;2.90;98.10;;;;;;5053358;28;20443;-85
2021/04/26 09:13:42;;;;;;;9.90;6.68;;;3.00;98.00;;;;;;5053604;28;20045;-85
2021/04/26 09:16:22;;;;;;;7.70;5.25;;;3.10;98.10;;;;;;5052343;28;20029;-86
2021/04/26 09:19:02;;;;;;;5.30;3.92;;;3.20;97.80;;;;;;5052065;28;20037;-85
2021/04/26 09:21:31;;;;;;;5.15;4.40;;;3.20;97.20;;;;;;5051549;28;20033;-86
2021/04/26 09:24:24;;;;;;;4.63;4.18;;;3.20;97.00;;;;;;5051088;28;20032;-84
2021/04/26 09:26:53;;;;;;;5.88;4.60;;;3.30;97.40;;;;;;5050265;28;20029;-84
2021/04/26 09:29:26;;;;;;;5.35;4.70;;;3.30;97.20;;;;;;5051553;28;20479;-83
2021/04/26 09:32:01;;;;;;;5.57;4.65;;;3.40;97.10;;;;;;5052015;28;20095;-82
2021/04/26 09:34:31;;;;;;;5.13;4.15;;;3.50;97.10;;;;;;5051365;28;20151;-84
2021/04/26 09:37:27;;;;;;;9.57;7.55;;;3.50;96.80;;;;;;5051273;28;20382;-85
2021/04/26 09:40:12;;;;;;;13.13;8.82;;;3.60;96.60;;;;;;5050721;28;20043;-80
2021/04/26 09:42:42;;;;;;;6.95;5.40;;;3.60;96.80;;;;;;5053259;28;20021;-83
2021/04/26 09:45:22;;;;;;;4.90;4.32;;;3.60;96.50;;;;;;5054191;28;20025;-84
2021/04/26 09:47:49;;;;;;;5.15;4.28;;;3.70;96.00;;;;;;5052469;28;20025;-87
2021/04/26 09:50:16;;;;;;;4.32;3.35;;;3.80;96.30;;;;;;5055505;28;20055;-82
2021/04/26 09:52:41;;;;;;;4.93;4.10;;;3.90;95.90;;;;;;5061518;28;20490;-83
2021/04/26 09:55:28;;;;;;;4.53;4.03;;;4.00;95.60;;;;;;5056117;28;20041;-83
2021/04/26 09:57:54;;;;;;;5.93;4.20;;;4.30;95.80;;;;;;5053735;28;20032;-84
2021/04/26 10:00:21;;;;;;;4.35;3.95;;;4.40;95.60;;;;;;5054022;28;20139;-83
2021/04/26 10:02:47;;;;;;;3.22;2.92;;;4.50;95.00;;;;;;5052546;28;20475;-85
2021/04/26 10:05:13;;;;;;;3.15;2.65;;;4.60;94.30;;;;;;5052584;28;20486;-84
2021/04/26 10:07:40;;;;;;;3.97;3.20;;;4.70;93.90;;;;;;5054910;28;20032;-82
2021/04/26 10:10:06;;;;;;;5.15;3.72;;;4.80;94.00;;;;;;5061137;28;20051;-81
2021/04/26 10:12:31;;;;;;;4.07;3.05;;;4.90;93.90;;;;;;5052200;28;20030;-84
2021/04/26 10:14:57;;;;;;;7.53;4.35;;;5.00;93.70;;;;;;5051819;28;20563;-82
2021/04/26 10:17:23;;;;;;;4.03;3.28;;;5.10;93.60;;;;;;5052334;28;20024;-83
2021/04/26 10:19:51;;;;;;;3.20;2.90;;;5.20;92.90;;;;;;5053333;28;20536;-82
2021/04/26 10:22:36;;;;;;;5.30;2.55;;;5.40;92.60;;;;;;5051396;28;20517;-76
2021/04/26 10:25:02;;;;;;;4.38;2.70;;;5.30;91.50;;;;;;5051719;28;20021;-80
2021/04/26 10:27:41;;;;;;;2.72;2.53;;;5.50;92.20;;;;;;5053082;28;20087;-79
2021/04/26 10:30:08;;;;;;;3.47;2.58;;;5.40;91.10;;;;;;5052998;28;20040;-87
2021/04/26 10:32:57;;;;;;;3.95;3.20;;;5.50;91.50;;;;;;5051705;28;20406;-80
2021/04/26 10:35:41;;;;;;;4.47;3.40;;;5.60;91.50;;;;;;5051781;28;20029;-78
2021/04/26 10:38:37;;;;;;;5.50;4.00;;;5.80;92.10;;;;;;5051747;28;20075;-79
2021/04/26 10:41:04;;;;;;;3.85;3.00;;;5.90;91.10;;;;;;5050027;28;20075;-87
2021/04/26 10:43:33;;;;;;;3.63;3.15;;;5.90;90.90;;;;;;5050099;28;20040;-78
2021/04/26 10:46:22;;;;;;;3.70;3.08;;;5.90;91.30;;;;;;5050486;28;20113;-81
2021/04/26 10:49:06;;;;;;;6.57;3.53;;;6.00;91.00;;;;;;5047510;28;20498;-81
2021/04/26 10:51:36;;;;;;;6.80;4.50;;;5.90;90.10;;;;;;5049059;28;20115;-79
2021/04/26 10:54:03;;;;;;;5.95;3.20;;;5.90;91.00;;;;;;5051311;28;20029;-84
2021/04/26 10:56:31;;;;;;;7.32;3.60;;;5.90;90.60;;;;;;5049668;28;20036;-78
2021/04/26 10:59:23;;;;;;;9.93;4.20;;;6.00;90.60;;;;;;5050802;28;20025;-80
2021/04/26 11:01:51;;;;;;;6.78;3.10;;;6.20;90.30;;;;;;5049621;28;20380;-78
2021/04/26 11:04:18;;;;;;;6.85;3.80;;;6.10;89.60;;;;;;5049507;28;20068;-79
2021/04/26 11:07:17;;;;;;;5.18;3.40;;;6.20;90.30;;;;;;5050836;28;20114;-80
2021/04/26 11:09:43;;;;;;;3.83;3.42;;;6.40;90.30;;;;;;5048824;28;20116;-82
2021/04/26 11:12:31;;;;;;;2.70;2.50;;;6.30;89.80;;;;;;5049490;28;20111;-78
2021/04/26 11:15:16;;;;;;;9.77;4.78;;;6.30;89.70;;;;;;5050504;28;20066;-78
2021/04/26 11:17:43;;;;;;;13.85;8.38;;;6.30;89.80;;;;;;5050577;28;20490;-78
2021/04/26 11:20:13;;;;;;;5.80;4.25;;;6.20;90.00;;;;;;5049000;28;20055;-82
2021/04/26 11:22:39;;;;;;;9.63;6.90;;;6.20;90.20;;;;;;5048791;28;20079;-79
2021/04/26 11:25:06;;;;;;;7.28;5.18;;;6.20;90.50;;;;;;5050195;28;20021;-79
2021/04/26 11:27:32;;;;;;;21.75;10.85;;;6.20;90.30;;;;;;5050033;28;20373;-81
2021/04/26 11:29:58;;;;;;;6.80;5.32;;;6.10;90.60;;;;;;5049522;28;20039;-78
2021/04/26 11:32:26;;;;;;;15.15;10.80;;;6.10;90.80;;;;;;5048970;28;20115;-78
2021/04/26 11:34:56;;;;;;;6.78;4.65;;;6.40;90.90;;;;;;5050028;28;20029;-78
2021/04/26 11:37:42;;;;;;;12.40;7.43;;;6.60;90.20;;;;;;5048914;28;20040;-77
2021/04/26 11:40:16;;;;;;;9.88;5.97;;;6.70;90.00;;;;;;5049139;28;20037;-78
2021/04/26 11:42:43;;;;;;;5.13;3.50;;;6.80;89.70;;;;;;5052091;28;20092;-79
2021/04/26 11:45:10;;;;;;;5.85;3.17;;;6.90;89.00;;;;;;5050786;28;20075;-81
2021/04/26 11:47:36;;;;;;;3.13;2.60;;;6.80;88.20;;;;;;5052060;28;20029;-82
2021/04/26 11:50:05;;;;;;;3.20;2.90;;;6.60;88.80;;;;;;5051698;28;20057;-80
2021/04/26 11:52:32;;;;;;;4.47;2.90;;;6.60;89.20;;;;;;5051695;28;20021;-79
2021/04/26 11:55:04;;;;;;;3.70;2.67;;;6.70;88.90;;;;;;5050504;28;20033;-80
2021/04/26 11:57:41;;;;;;;3.10;2.80;;;6.70;88.00;;;;;;5050302;28;20036;-79
2021/04/26 12:00:09;;;;;;;3.28;2.70;;;6.70;87.80;;;;;;5052140;28;20025;-79
2021/04/26 12:02:44;;;;;;;9.25;5.10;;;6.80;88.90;;;;;;5050377;28;20024;-76
2021/04/26 12:05:11;;;;;;;3.38;3.05;;;7.00;88.10;;;;;;5051965;28;20049;-80
2021/04/26 12:07:38;;;;;;;24.10;8.75;;;6.80;87.80;;;;;;5051255;28;20025;-78
2021/04/26 12:10:07;;;;;;;7.90;3.58;;;6.90;87.30;;;;;;5050495;28;20055;-78
2021/04/26 12:12:34;;;;;;;8.05;4.40;;;6.90;86.90;;;;;;5051924;28;20027;-79
2021/04/26 12:15:22;;;;;;;19.08;6.07;;;6.90;87.40;;;;;;5050496;28;20033;-78
2021/04/26 12:17:53;;;;;;;8.00;4.32;;;7.30;87.30;;;;;;5052298;28;20032;-77
2021/04/26 12:20:25;;;;;;;9.35;5.10;;;7.30;86.20;;;;;;5052055;28;20075;-72
2021/04/26 12:22:54;;;;;;;3.65;3.10;;;7.50;85.60;;;;;;5056127;28;20031;-84
2021/04/26 12:25:22;;;;;;;5.85;4.13;;;7.30;85.10;;;;;;5057351;28;20048;-77
2021/04/26 12:28:00;;;;;;;5.93;3.92;;;7.40;85.90;;;;;;5055702;28;20025;-75
2021/04/26 12:30:27;;;;;;;4.20;2.50;;;7.50;85.30;;;;;;5057073;28;20025;-76
2021/04/26 12:32:55;;;;;;;4.25;3.08;;;7.70;85.00;;;;;;5055626;28;20025;-79
2021/04/26 12:35:28;;;;;;;6.82;3.13;;;7.80;84.30;;;;;;5056746;28;20043;-75
2021/04/26 12:37:56;;;;;;;3.30;2.58;;;7.60;84.20;;;;;;5056976;28;20032;-74
2021/04/26 12:40:30;;;;;;;2.80;2.55;;;7.50;83.60;;;;;;5054278;28;20021;-74
2021/04/26 12:42:56;;;;;;;4.70;2.80;;;7.50;85.80;;;;;;5055503;28;20450;-73
2021/04/26 12:45:38;;;;;;;8.98;5.20;;;7.70;84.80;;;;;;5055198;28;20017;-74
2021/04/26 12:48:05;;;;;;;4.63;3.35;;;7.80;84.90;;;;;;5054677;28;20025;-71
2021/04/26 12:50:38;;;;;;;3.00;2.70;;;7.90;84.50;;;;;;5054426;28;20474;-72
2021/04/26 12:53:18;;;;;;;2.78;2.58;;;7.90;84.10;;;;;;5055045;28;20021;-77